Time;durP1;ratioP1;P1;durP2;ratioP2;P2;SDS_P1;SDS_P2;PMS_P1;PMS_P2;Temp;Humidity;BMP_temperature;BMP_pressure;BME280_temperature;BME280_humidity;BME280_pressure;Samples;Min_cycle;Max_cycle;Signal;HPM_P1;HPM_P2
2023/12/17 00:02:00;;;;;;;12.63;12.23;;;22.40;53.00;;;;;;4955754;28;20496;-71
2023/12/17 00:04:26;;;;;;;12.40;12.00;;;22.30;53.00;;;;;;4955767;29;20476;-71
2023/12/17 00:06:53;;;;;;;11.77;11.47;;;22.30;53.00;;;;;;4955583;29;20491;-71
2023/12/17 00:09:22;;;;;;;16.20;15.70;;;22.30;53.10;;;;;;4955469;29;20476;-71
2023/12/17 00:11:48;;;;;;;11.60;11.30;;;22.30;53.10;;;;;;4956441;28;20503;-71
2023/12/17 00:14:15;;;;;;;11.50;11.20;;;22.30;53.10;;;;;;4955897;29;20482;-71
2023/12/17 00:16:42;;;;;;;12.20;11.90;;;22.30;53.10;;;;;;4955403;29;20483;-71
2023/12/17 00:19:09;;;;;;;16.63;16.13;;;22.30;53.20;;;;;;4955237;29;20485;-71
2023/12/17 00:21:36;;;;;;;15.90;15.50;;;22.30;53.10;;;;;;4992852;23;21030;-66
2023/12/17 00:24:03;;;;;;;14.80;14.40;;;22.30;53.10;;;;;;4966630;28;20572;-66
2023/12/17 00:26:31;;;;;;;14.73;14.33;;;22.20;53.10;;;;;;4966239;28;20444;-66
2023/12/17 00:28:58;;;;;;;14.57;14.03;;;22.20;53.10;;;;;;4963360;28;20789;-66
2023/12/17 00:31:25;;;;;;;14.23;13.83;;;22.20;53.10;;;;;;4968691;28;20496;-66
2023/12/17 00:33:52;;;;;;;14.70;14.30;;;22.20;53.20;;;;;;4974468;28;20476;-67
2023/12/17 00:36:19;;;;;;;14.77;14.37;;;22.20;53.10;;;;;;4974133;28;20464;-67
2023/12/17 00:38:46;;;;;;;14.33;13.93;;;22.20;53.20;;;;;;4974048;28;20456;-66
2023/12/17 00:41:13;;;;;;;15.27;14.87;;;22.20;53.20;;;;;;4973422;28;20498;-66
2023/12/17 00:43:43;;;;;;;14.50;14.10;;;22.10;53.20;;;;;;4973852;28;20512;-66
2023/12/17 00:46:10;;;;;;;13.70;13.40;;;22.10;53.30;;;;;;4973976;28;20444;-66
2023/12/17 00:48:36;;;;;;;15.73;15.33;;;22.10;53.30;;;;;;4973302;28;20985;-66
2023/12/17 00:51:05;;;;;;;15.20;14.70;;;22.10;53.40;;;;;;4965928;28;20539;-66
2023/12/17 00:53:31;;;;;;;15.40;14.90;;;22.10;53.40;;;;;;4973973;28;20814;-66
2023/12/17 00:55:59;;;;;;;15.63;15.23;;;22.10;53.40;;;;;;4973717;28;21266;-67
2023/12/17 00:58:25;;;;;;;15.27;14.87;;;22.10;53.50;;;;;;4973163;28;20807;-67
2023/12/17 01:00:54;;;;;;;12.80;12.50;;;22.10;53.60;;;;;;4973716;28;20863;-67
2023/12/17 01:03:21;;;;;;;13.20;12.90;;;22.00;53.50;;;;;;4972741;28;20515;-67
2023/12/17 01:05:47;;;;;;;12.93;12.23;;;22.00;53.60;;;;;;4973474;28;20478;-67
2023/12/17 01:08:14;;;;;;;12.47;12.07;;;22.00;53.60;;;;;;4973350;28;20483;-67
2023/12/17 01:10:41;;;;;;;11.83;11.53;;;22.00;53.70;;;;;;4970713;28;20482;-67
2023/12/17 01:13:08;;;;;;;13.27;12.97;;;22.00;53.80;;;;;;4973499;28;20883;-67
2023/12/17 01:15:35;;;;;;;12.50;12.10;;;22.00;53.80;;;;;;4973491;28;20887;-67
2023/12/17 01:18:03;;;;;;;15.97;15.57;;;22.00;53.70;;;;;;4973221;28;20444;-66
2023/12/17 01:20:30;;;;;;;15.40;15.00;;;22.00;53.80;;;;;;4972871;28;20476;-66
2023/12/17 01:22:57;;;;;;;14.43;14.00;;;22.00;53.80;;;;;;4972986;28;20515;-66
2023/12/17 01:25:24;;;;;;;12.53;11.90;;;22.00;53.80;;;;;;4973266;28;20479;-67
2023/12/17 01:27:51;;;;;;;13.20;12.80;;;22.00;53.80;;;;;;4973179;28;20474;-67
2023/12/17 01:30:18;;;;;;;12.43;12.13;;;22.00;53.90;;;;;;4972975;28;20520;-67
2023/12/17 01:32:45;;;;;;;11.93;11.63;;;22.00;53.90;;;;;;4972980;28;20495;-67
2023/12/17 01:35:13;;;;;;;12.70;12.30;;;22.00;53.90;;;;;;4973165;28;20467;-67
2023/12/17 01:37:40;;;;;;;12.10;11.73;;;21.90;53.80;;;;;;4972790;28;20486;-67
2023/12/17 01:40:08;;;;;;;11.50;11.20;;;21.90;53.80;;;;;;4973084;28;20470;-66
2023/12/17 01:42:35;;;;;;;12.40;12.10;;;21.90;53.80;;;;;;4972875;28;20516;-67
2023/12/17 01:45:02;;;;;;;12.37;12.07;;;21.90;53.80;;;;;;4972892;28;20935;-67
2023/12/17 01:47:29;;;;;;;12.20;11.90;;;21.90;53.80;;;;;;4972550;28;20487;-67
2023/12/17 01:49:56;;;;;;;12.10;11.77;;;21.90;53.80;;;;;;4973033;28;20481;-67
2023/12/17 01:52:25;;;;;;;11.80;11.40;;;21.90;53.80;;;;;;4972846;28;20494;-67
2023/12/17 01:54:52;;;;;;;12.30;12.00;;;21.90;53.80;;;;;;4972849;28;20475;-67
2023/12/17 01:57:19;;;;;;;12.70;12.20;;;21.90;53.80;;;;;;4972312;28;20478;-66
2023/12/17 01:59:46;;;;;;;12.03;11.67;;;21.90;53.80;;;;;;4972711;28;20963;-67
2023/12/17 02:02:13;;;;;;;12.60;12.30;;;21.90;53.90;;;;;;4972722;28;20851;-67
2023/12/17 02:04:41;;;;;;;13.60;13.10;;;21.90;53.90;;;;;;4972781;28;20552;-67
2023/12/17 02:07:08;;;;;;;12.07;11.77;;;21.90;53.90;;;;;;4965397;28;20464;-67
2023/12/17 02:09:36;;;;;;;12.00;11.70;;;21.80;53.90;;;;;;4972933;28;20451;-66
2023/12/17 02:12:03;;;;;;;12.60;12.30;;;21.80;54.00;;;;;;4972568;28;20484;-66
2023/12/17 02:14:30;;;;;;;12.60;12.30;;;21.80;54.00;;;;;;4973222;28;20475;-67
2023/12/17 02:16:57;;;;;;;12.80;12.40;;;21.80;54.00;;;;;;4976496;28;20479;-67
2023/12/17 02:19:24;;;;;;;12.37;12.07;;;21.80;54.00;;;;;;4976751;28;20474;-67
2023/12/17 02:21:51;;;;;;;14.03;13.43;;;21.80;54.00;;;;;;4974961;28;20492;-66
2023/12/17 02:24:19;;;;;;;13.13;12.73;;;21.80;54.10;;;;;;4976748;28;20511;-67
2023/12/17 02:26:46;;;;;;;12.93;12.40;;;21.80;54.10;;;;;;4976688;28;20476;-67
2023/12/17 02:29:13;;;;;;;12.67;12.27;;;21.80;54.10;;;;;;4976645;28;20478;-67
2023/12/17 02:31:40;;;;;;;12.50;12.10;;;21.80;54.10;;;;;;4976062;28;20991;-67
2023/12/17 02:34:07;;;;;;;12.90;12.50;;;21.80;54.10;;;;;;4973647;28;20472;-67
2023/12/17 02:36:33;;;;;;;12.23;11.93;;;21.80;54.10;;;;;;4964283;28;20447;-66
2023/12/17 02:39:01;;;;;;;12.80;12.40;;;21.80;54.10;;;;;;4976528;28;20478;-66
2023/12/17 02:41:29;;;;;;;12.60;12.20;;;21.80;54.10;;;;;;4976325;28;20471;-67
2023/12/17 02:43:56;;;;;;;12.33;11.93;;;21.80;54.10;;;;;;4975604;28;20518;-67
2023/12/17 02:46:23;;;;;;;12.13;11.83;;;21.80;54.10;;;;;;4976232;28;20471;-67
2023/12/17 02:48:50;;;;;;;11.90;11.60;;;21.80;54.10;;;;;;4976035;28;20479;-67
2023/12/17 02:51:16;;;;;;;12.83;12.53;;;21.80;54.10;;;;;;4976120;28;20470;-67
2023/12/17 02:53:43;;;;;;;12.87;12.40;;;21.80;54.10;;;;;;4975757;28;20483;-67
2023/12/17 02:56:10;;;;;;;12.10;11.80;;;21.80;54.20;;;;;;4976140;28;20475;-67
2023/12/17 02:58:40;;;;;;;12.57;12.27;;;21.70;54.10;;;;;;4976031;28;20478;-67
2023/12/17 03:01:07;;;;;;;12.83;12.43;;;21.80;54.20;;;;;;4975084;28;20488;-67
2023/12/17 03:03:34;;;;;;;13.00;12.70;;;21.80;54.20;;;;;;4975857;28;20563;-67
2023/12/17 03:06:01;;;;;;;12.67;12.37;;;21.80;54.20;;;;;;4975868;28;20482;-67
2023/12/17 03:08:27;;;;;;;12.00;11.70;;;21.70;54.10;;;;;;4975844;28;20482;-67
2023/12/17 03:10:54;;;;;;;12.27;11.97;;;21.70;54.10;;;;;;4974969;28;20543;-67
2023/12/17 03:13:21;;;;;;;12.30;11.90;;;21.70;54.20;;;;;;4975752;28;20467;-67
2023/12/17 03:15:49;;;;;;;12.60;12.30;;;21.70;54.20;;;;;;4975553;28;20486;-67
2023/12/17 03:18:18;;;;;;;12.40;12.10;;;21.70;54.20;;;;;;4975703;28;20478;-67
2023/12/17 03:20:45;;;;;;;12.60;12.30;;;21.70;54.20;;;;;;4974968;28;20451;-67
2023/12/17 03:23:12;;;;;;;12.60;12.30;;;21.70;54.20;;;;;;4975422;28;21019;-67
2023/12/17 03:25:39;;;;;;;12.60;12.30;;;21.70;54.30;;;;;;4975193;28;20452;-67
2023/12/17 03:28:06;;;;;;;14.57;14.17;;;21.70;54.30;;;;;;4974599;28;20885;-67
2023/12/17 03:30:33;;;;;;;12.93;12.53;;;21.70;54.40;;;;;;4974878;28;20487;-67
2023/12/17 03:33:01;;;;;;;12.63;12.33;;;21.70;54.40;;;;;;4975307;28;20510;-67
2023/12/17 03:35:28;;;;;;;13.50;13.10;;;21.70;54.40;;;;;;4975427;28;20482;-67
2023/12/17 03:37:54;;;;;;;12.60;12.30;;;21.70;54.40;;;;;;4974995;28;20472;-67
2023/12/17 03:40:21;;;;;;;14.03;13.63;;;21.70;54.40;;;;;;4974626;28;20553;-67
2023/12/17 03:42:48;;;;;;;13.00;12.70;;;21.70;54.40;;;;;;4975217;28;20879;-67
2023/12/17 03:45:15;;;;;;;13.00;12.67;;;21.70;54.40;;;;;;4975133;28;20643;-67
2023/12/17 03:47:46;;;;;;;13.87;13.47;;;21.70;54.30;;;;;;4975073;28;20531;-67
2023/12/17 03:50:15;;;;;;;13.17;12.87;;;21.70;54.40;;;;;;4974554;28;20467;-67
2023/12/17 03:52:42;;;;;;;13.40;13.00;;;21.70;54.40;;;;;;4974335;28;21082;-67
2023/12/17 03:55:09;;;;;;;13.20;12.87;;;21.70;54.40;;;;;;4974934;28;20471;-67
2023/12/17 03:57:36;;;;;;;13.03;12.63;;;21.70;54.40;;;;;;4974990;28;20550;-67
2023/12/17 04:00:04;;;;;;;12.97;12.67;;;21.70;54.30;;;;;;4972961;28;20444;-67
2023/12/17 04:02:31;;;;;;;13.97;13.57;;;21.60;54.30;;;;;;4975018;28;20548;-67
2023/12/17 04:04:58;;;;;;;12.90;12.60;;;21.60;54.30;;;;;;4974660;28;20554;-67
2023/12/17 04:07:28;;;;;;;12.90;12.50;;;21.60;54.30;;;;;;4974481;28;20827;-67
2023/12/17 04:09:56;;;;;;;13.30;13.00;;;21.70;54.30;;;;;;4974772;28;20448;-67
2023/12/17 04:12:23;;;;;;;13.43;13.03;;;21.60;54.30;;;;;;4974647;28;20499;-67
2023/12/17 04:14:50;;;;;;;13.77;13.37;;;21.60;54.30;;;;;;4974563;28;20479;-67
2023/12/17 04:17:17;;;;;;;15.30;14.80;;;21.60;54.30;;;;;;4973971;28;20484;-67
2023/12/17 04:19:44;;;;;;;13.23;12.83;;;21.60;54.30;;;;;;4974729;28;20475;-67
2023/12/17 04:22:11;;;;;;;12.60;12.30;;;21.60;54.30;;;;;;4974179;28;20891;-66
2023/12/17 04:24:40;;;;;;;13.70;13.30;;;21.60;54.30;;;;;;4974453;28;20915;-67
2023/12/17 04:27:07;;;;;;;12.80;12.50;;;21.60;54.30;;;;;;4973907;28;20468;-67
2023/12/17 04:29:34;;;;;;;12.80;12.40;;;21.60;54.30;;;;;;4974627;28;20458;-67
2023/12/17 04:32:00;;;;;;;13.07;12.67;;;21.60;54.30;;;;;;4974190;28;20503;-67
2023/12/17 04:34:27;;;;;;;12.30;12.00;;;21.60;54.50;;;;;;4974134;28;20476;-67
2023/12/17 04:36:59;;;;;;;12.87;12.57;;;21.60;54.40;;;;;;4974050;28;20583;-67
2023/12/17 04:39:26;;;;;;;12.50;12.20;;;21.60;54.50;;;;;;4973990;28;20451;-66
2023/12/17 04:41:54;;;;;;;12.80;12.50;;;21.60;54.50;;;;;;4973979;28;20495;-67
2023/12/17 04:44:21;;;;;;;13.20;12.70;;;21.60;54.50;;;;;;4974017;28;20479;-67
2023/12/17 04:46:48;;;;;;;12.00;11.70;;;21.60;54.50;;;;;;4973943;28;20486;-67
2023/12/17 04:49:15;;;;;;;12.97;12.57;;;21.60;54.60;;;;;;4973771;28;20478;-67
2023/12/17 04:51:42;;;;;;;12.27;11.97;;;21.50;54.50;;;;;;4973832;28;20501;-67
2023/12/17 04:54:09;;;;;;;11.67;11.37;;;21.60;54.70;;;;;;4973673;28;20471;-67
2023/12/17 04:56:35;;;;;;;12.47;11.67;;;21.50;54.60;;;;;;4973672;28;20478;-67
2023/12/17 04:59:04;;;;;;;11.90;11.60;;;21.50;54.60;;;;;;4973473;28;20882;-67
2023/12/17 05:01:31;;;;;;;13.87;13.47;;;21.50;54.70;;;;;;4973637;28;20492;-67
2023/12/17 05:03:57;;;;;;;12.50;12.20;;;21.50;54.80;;;;;;4973447;28;20511;-67
2023/12/17 05:06:24;;;;;;;13.30;12.90;;;21.50;54.80;;;;;;4973655;28;20476;-67
2023/12/17 05:08:51;;;;;;;13.00;12.47;;;21.50;54.80;;;;;;4972943;28;20516;-67
2023/12/17 05:11:18;;;;;;;13.10;12.80;;;21.50;54.80;;;;;;4973406;28;20495;-67
2023/12/17 05:13:45;;;;;;;13.80;13.40;;;21.50;54.80;;;;;;4971769;28;20476;-67
2023/12/17 05:16:13;;;;;;;13.23;12.83;;;21.50;54.90;;;;;;4970049;28;20468;-67
2023/12/17 05:18:40;;;;;;;13.20;12.90;;;21.50;55.00;;;;;;4973491;28;20881;-67
2023/12/17 05:21:06;;;;;;;12.67;12.37;;;21.50;55.00;;;;;;4973173;28;20894;-67
2023/12/17 05:23:33;;;;;;;12.20;11.90;;;21.50;55.00;;;;;;4973285;28;20520;-67
2023/12/17 05:26:00;;;;;;;13.10;12.70;;;21.50;55.10;;;;;;4972591;28;20479;-67
2023/12/17 05:28:27;;;;;;;13.20;12.90;;;21.50;55.00;;;;;;4973463;28;20541;-67
2023/12/17 05:30:54;;;;;;;12.97;12.60;;;21.50;55.00;;;;;;4973021;28;20454;-67
2023/12/17 05:33:23;;;;;;;13.70;13.30;;;21.50;55.00;;;;;;4973226;28;20954;-67
2023/12/17 05:35:50;;;;;;;13.20;12.70;;;21.50;55.00;;;;;;4972987;28;20502;-67
2023/12/17 05:38:17;;;;;;;13.20;12.70;;;21.50;55.00;;;;;;4973305;28;20471;-67
2023/12/17 05:40:44;;;;;;;13.10;12.70;;;21.50;55.50;;;;;;4973077;28;20444;-67
2023/12/17 05:43:10;;;;;;;12.50;12.20;;;21.50;55.00;;;;;;4972331;28;20471;-73
2023/12/17 05:45:37;;;;;;;13.03;12.63;;;21.50;55.00;;;;;;4973032;28;21039;-72
2023/12/17 05:48:04;;;;;;;13.70;13.20;;;21.50;54.90;;;;;;4972919;28;20845;-75
2023/12/17 05:50:33;;;;;;;12.60;12.30;;;21.50;54.90;;;;;;4972300;28;20456;-74
2023/12/17 05:53:00;;;;;;;16.20;15.80;;;21.50;54.90;;;;;;4972378;28;21045;-73
2023/12/17 05:55:27;;;;;;;16.63;16.23;;;21.50;55.00;;;;;;4971382;28;20829;-75
2023/12/17 05:57:53;;;;;;;14.87;14.47;;;21.50;55.00;;;;;;4970017;28;20471;-76
2023/12/17 06:00:21;;;;;;;15.13;14.63;;;21.50;55.00;;;;;;4972890;28;20502;-74
2023/12/17 06:02:47;;;;;;;14.03;13.63;;;21.50;55.00;;;;;;4972186;28;20503;-73
2023/12/17 06:05:14;;;;;;;12.70;12.30;;;21.50;55.00;;;;;;4972834;28;20515;-75
2023/12/17 06:07:43;;;;;;;12.33;12.03;;;21.50;55.00;;;;;;4972823;28;20448;-75
2023/12/17 06:10:10;;;;;;;13.70;13.30;;;21.50;55.00;;;;;;4972607;28;20476;-76
2023/12/17 06:12:37;;;;;;;14.63;14.30;;;21.50;55.00;;;;;;4972262;28;20888;-76
2023/12/17 06:15:07;;;;;;;12.70;12.40;;;21.50;55.10;;;;;;4972787;28;20940;-75
2023/12/17 06:17:34;;;;;;;13.70;13.40;;;21.50;55.00;;;;;;4972660;28;20454;-76
2023/12/17 06:20:02;;;;;;;14.10;13.70;;;21.50;55.10;;;;;;4972559;28;20943;-73
2023/12/17 06:22:29;;;;;;;13.87;13.57;;;21.50;55.10;;;;;;5034155;23;20498;-71
2023/12/17 06:24:58;;;;;;;14.10;13.70;;;21.50;55.00;;;;;;5017848;28;20930;-69
2023/12/17 06:27:24;;;;;;;13.33;12.83;;;21.60;55.20;;;;;;5017193;28;20446;-71
2023/12/17 06:29:52;;;;;;;12.80;12.40;;;21.50;55.10;;;;;;5015122;28;20470;-71
2023/12/17 06:32:19;;;;;;;14.30;13.90;;;21.50;55.10;;;;;;5010759;28;20466;-69
2023/12/17 06:34:46;;;;;;;13.73;13.43;;;21.60;55.20;;;;;;5003453;28;20475;-71
2023/12/17 06:37:12;;;;;;;13.80;13.40;;;21.60;55.10;;;;;;5010870;28;20461;-71
2023/12/17 06:39:42;;;;;;;13.80;13.50;;;21.60;55.10;;;;;;5006826;28;20964;-71
2023/12/17 06:42:10;;;;;;;13.68;13.27;;;21.60;55.10;;;;;;5005081;28;20454;-71
2023/12/17 06:44:37;;;;;;;13.20;12.90;;;21.60;55.10;;;;;;5000217;28;20235;-70
2023/12/17 06:47:05;;;;;;;14.90;14.50;;;21.60;55.20;;;;;;5001422;28;20509;-72
2023/12/17 06:49:33;;;;;;;13.67;13.33;;;21.60;55.30;;;;;;5005406;28;20879;-75
2023/12/17 06:52:00;;;;;;;13.20;12.90;;;21.70;55.60;;;;;;5004871;28;20462;-73
2023/12/17 06:54:27;;;;;;;14.83;14.40;;;21.70;55.60;;;;;;5001959;28;20477;-74
2023/12/17 06:56:54;;;;;;;14.10;13.53;;;21.70;55.70;;;;;;5000278;28;20541;-74
2023/12/17 06:59:22;;;;;;;14.20;13.90;;;21.70;55.90;;;;;;5003565;28;20442;-74
2023/12/17 07:01:49;;;;;;;13.60;13.30;;;21.70;55.90;;;;;;5006050;28;20500;-71
2023/12/17 07:04:16;;;;;;;13.80;13.40;;;21.80;56.00;;;;;;5004236;28;20510;-74
2023/12/17 07:06:43;;;;;;;14.20;13.80;;;21.80;56.00;;;;;;5004050;28;20443;-74
2023/12/17 07:09:10;;;;;;;14.60;14.20;;;21.80;56.00;;;;;;5006693;28;20457;-74
2023/12/17 07:11:37;;;;;;;14.50;14.10;;;21.80;56.10;;;;;;5008453;28;20490;-76
2023/12/17 07:14:04;;;;;;;13.47;13.17;;;21.90;56.20;;;;;;5006973;28;20476;-74
2023/12/17 07:16:32;;;;;;;13.33;13.03;;;21.90;56.20;;;;;;5004999;28;20466;-75
2023/12/17 07:18:59;;;;;;;14.43;14.03;;;21.90;56.20;;;;;;5015870;28;20443;-75
2023/12/17 07:21:26;;;;;;;13.67;13.27;;;21.90;56.20;;;;;;5008447;28;20508;-75
2023/12/17 07:23:53;;;;;;;12.77;12.40;;;22.00;56.20;;;;;;5008843;28;20446;-70
2023/12/17 07:26:20;;;;;;;13.00;12.70;;;21.90;56.20;;;;;;4995021;28;20517;-70
2023/12/17 07:28:47;;;;;;;13.83;13.53;;;22.00;56.20;;;;;;5003176;28;20471;-72
2023/12/17 07:31:14;;;;;;;13.60;13.30;;;22.00;56.20;;;;;;5005437;28;20475;-71
2023/12/17 07:33:43;;;;;;;13.40;13.10;;;22.00;56.20;;;;;;5006270;28;20508;-71
2023/12/17 07:36:10;;;;;;;13.50;13.20;;;22.00;56.20;;;;;;5004090;28;20512;-72
2023/12/17 07:38:37;;;;;;;12.73;12.43;;;22.00;56.10;;;;;;5002277;28;20475;-71
2023/12/17 07:41:05;;;;;;;12.53;12.23;;;22.00;56.20;;;;;;5000446;28;20534;-68
2023/12/17 07:43:35;;;;;;;13.87;13.57;;;22.10;56.60;;;;;;5002824;28;20447;-71
2023/12/17 07:46:02;;;;;;;13.60;13.30;;;22.00;56.90;;;;;;5002158;28;20994;-73
2023/12/17 07:48:29;;;;;;;13.90;13.50;;;22.10;56.60;;;;;;5006166;28;20504;-71
2023/12/17 07:51:18;;;;;;;14.40;14.03;;;22.10;56.40;;;;;;5002820;28;20474;-71
2023/12/17 07:53:48;;;;;;;14.40;14.00;;;22.10;56.30;;;;;;5005760;28;20823;-70
2023/12/17 07:56:24;;;;;;;13.47;13.17;;;22.20;56.30;;;;;;5003177;28;20467;-71
2023/12/17 07:59:01;;;;;;;14.07;13.67;;;22.20;56.20;;;;;;5002502;28;20451;-71
2023/12/17 08:01:29;;;;;;;13.97;13.67;;;22.20;56.20;;;;;;4995193;28;20466;-71
2023/12/17 08:03:59;;;;;;;13.37;12.97;;;22.30;56.10;;;;;;5001014;28;20550;-70
2023/12/17 08:06:30;;;;;;;14.00;13.60;;;22.30;56.10;;;;;;5005870;28;20573;-71
2023/12/17 08:09:00;;;;;;;14.20;13.80;;;22.30;55.40;;;;;;5000407;28;20486;-69
2023/12/17 08:11:29;;;;;;;14.70;14.30;;;22.30;55.60;;;;;;5001988;28;20495;-72
2023/12/17 08:13:57;;;;;;;14.27;13.80;;;22.30;55.50;;;;;;5000448;28;20450;-71
2023/12/17 08:16:28;;;;;;;15.07;14.43;;;22.30;55.50;;;;;;5001742;28;20469;-69
2023/12/17 08:18:57;;;;;;;13.60;13.30;;;22.30;55.50;;;;;;5002092;28;20973;-71
2023/12/17 08:21:27;;;;;;;15.53;15.13;;;22.40;55.30;;;;;;4994284;28;20505;-71
2023/12/17 08:23:57;;;;;;;14.23;13.53;;;22.30;54.90;;;;;;5001873;28;20471;-71
2023/12/17 08:26:24;;;;;;;14.57;14.17;;;22.30;54.90;;;;;;4995153;28;20514;-74
2023/12/17 08:28:51;;;;;;;14.50;14.07;;;22.30;54.90;;;;;;5005786;28;20446;-73
2023/12/17 08:31:18;;;;;;;14.43;14.03;;;22.30;54.80;;;;;;5003101;28;20978;-74
2023/12/17 08:33:50;;;;;;;16.30;15.90;;;22.30;54.80;;;;;;5003087;28;20486;-67
2023/12/17 08:36:17;;;;;;;14.77;14.37;;;22.40;54.80;;;;;;5009920;28;20926;-69
2023/12/17 08:38:45;;;;;;;15.17;14.77;;;22.30;54.90;;;;;;5004295;28;20984;-72
2023/12/17 08:41:14;;;;;;;13.97;13.67;;;22.30;54.90;;;;;;5002957;28;20457;-72
2023/12/17 08:43:41;;;;;;;14.10;13.70;;;22.30;54.90;;;;;;5001334;28;20479;-71
2023/12/17 08:46:08;;;;;;;14.40;14.00;;;22.30;55.00;;;;;;5002724;28;20518;-71
2023/12/17 08:48:35;;;;;;;13.90;13.50;;;22.40;55.00;;;;;;5002364;28;20477;-71
2023/12/17 08:51:02;;;;;;;15.23;14.83;;;22.40;55.10;;;;;;5004108;28;20470;-69
2023/12/17 08:53:29;;;;;;;14.03;13.67;;;22.40;55.00;;;;;;5001250;28;20529;-68
2023/12/17 08:55:59;;;;;;;13.70;13.40;;;22.40;55.00;;;;;;5001480;28;20470;-68
2023/12/17 08:58:29;;;;;;;14.23;13.83;;;22.50;55.00;;;;;;4992875;28;20443;-68
2023/12/17 09:00:56;;;;;;;14.10;13.70;;;22.50;55.20;;;;;;5001290;28;20458;-68
2023/12/17 09:03:26;;;;;;;14.87;14.47;;;22.40;54.80;;;;;;4994135;28;20459;-71
2023/12/17 09:05:53;;;;;;;14.60;14.20;;;22.40;54.80;;;;;;5006525;28;20554;-69
2023/12/17 09:08:22;;;;;;;14.50;14.10;;;22.50;55.10;;;;;;5002609;28;20446;-71
2023/12/17 09:10:51;;;;;;;14.50;14.17;;;22.50;55.40;;;;;;4999968;28;20459;-70
2023/12/17 09:13:22;;;;;;;16.17;15.77;;;22.50;55.00;;;;;;5003580;28;20523;-68
2023/12/17 09:15:56;;;;;;;14.80;14.30;;;22.40;54.80;;;;;;5003368;28;20792;-69
2023/12/17 09:18:24;;;;;;;14.70;14.20;;;22.40;54.80;;;;;;5000286;28;20927;-71
2023/12/17 09:20:52;;;;;;;14.67;14.27;;;22.40;54.90;;;;;;5000650;28;20470;-68
2023/12/17 09:23:23;;;;;;;14.60;14.20;;;22.40;54.80;;;;;;5002946;28;20898;-68
2023/12/17 09:25:51;;;;;;;14.90;14.50;;;22.40;54.80;;;;;;5003374;28;20908;-69
2023/12/17 09:28:18;;;;;;;14.37;14.00;;;22.40;54.70;;;;;;5001294;28;20456;-71
2023/12/17 09:30:45;;;;;;;14.10;13.80;;;22.40;54.80;;;;;;5000912;28;20528;-69
2023/12/17 09:33:14;;;;;;;14.97;14.57;;;22.50;54.70;;;;;;5002302;28;20459;-69
2023/12/17 09:35:40;;;;;;;14.10;13.70;;;22.60;54.50;;;;;;5003925;28;20565;-69
2023/12/17 09:38:07;;;;;;;14.20;13.90;;;22.60;54.40;;;;;;4997222;28;20481;-70
2023/12/17 09:40:34;;;;;;;14.00;13.60;;;22.70;54.30;;;;;;5000687;28;20478;-70
2023/12/17 09:43:02;;;;;;;14.90;14.50;;;22.70;54.20;;;;;;5000535;28;20991;-70
2023/12/17 09:45:29;;;;;;;13.50;13.20;;;22.70;54.10;;;;;;5003749;28;20520;-70
2023/12/17 09:47:56;;;;;;;13.90;13.50;;;22.80;54.00;;;;;;4998497;28;20470;-71
2023/12/17 09:50:27;;;;;;;13.93;13.57;;;22.80;54.00;;;;;;4992721;28;20479;-70
2023/12/17 09:52:54;;;;;;;14.57;14.07;;;22.80;53.90;;;;;;5000475;28;20471;-69
2023/12/17 09:55:22;;;;;;;13.20;12.90;;;22.90;53.90;;;;;;5000429;28;20446;-70
2023/12/17 09:57:49;;;;;;;14.30;13.90;;;22.90;53.80;;;;;;5003823;28;20528;-70
2023/12/17 10:00:17;;;;;;;14.70;14.30;;;22.90;53.70;;;;;;5001515;28;20474;-70
2023/12/17 10:02:44;;;;;;;13.90;13.50;;;22.90;53.60;;;;;;5000260;28;20474;-70
2023/12/17 10:05:11;;;;;;;14.30;13.70;;;22.90;53.50;;;;;;4989275;28;20547;-70
2023/12/17 10:07:51;;;;;;;15.00;14.60;;;22.90;53.40;;;;;;4984195;28;20442;-69
2023/12/17 10:10:22;;;;;;;13.70;13.40;;;22.90;53.40;;;;;;5001525;28;20449;-71
2023/12/17 10:12:54;;;;;;;14.20;13.80;;;22.90;53.60;;;;;;5000110;28;20470;-71
2023/12/17 10:15:23;;;;;;;13.60;13.20;;;23.00;53.70;;;;;;4998659;28;20461;-69
2023/12/17 10:17:50;;;;;;;12.90;12.60;;;23.00;54.00;;;;;;4998658;28;20453;-71
2023/12/17 10:20:20;;;;;;;13.73;13.33;;;23.00;54.00;;;;;;5002002;28;20837;-68
2023/12/17 10:23:03;;;;;;;13.60;13.20;;;23.10;54.00;;;;;;5003201;28;20502;-69
2023/12/17 10:25:30;;;;;;;15.03;14.50;;;23.10;53.80;;;;;;4992852;28;20489;-71
2023/12/17 10:28:00;;;;;;;15.13;14.73;;;23.20;53.90;;;;;;4999390;28;20446;-69
2023/12/17 10:30:36;;;;;;;14.50;14.10;;;23.20;53.80;;;;;;4991979;28;20447;-68
2023/12/17 10:33:10;;;;;;;15.20;14.80;;;23.20;53.90;;;;;;5000110;28;20463;-69
2023/12/17 10:35:38;;;;;;;14.80;14.40;;;23.20;53.80;;;;;;4978504;28;20439;-74
2023/12/17 10:38:11;;;;;;;14.30;13.90;;;23.20;53.70;;;;;;5001185;28;20447;-69
2023/12/17 10:40:41;;;;;;;14.07;13.67;;;23.30;53.70;;;;;;5007082;28;20941;-73
2023/12/17 10:43:09;;;;;;;14.37;13.97;;;23.30;53.80;;;;;;5006416;28;20526;-74
2023/12/17 10:45:39;;;;;;;14.70;14.30;;;23.30;53.80;;;;;;4997105;28;20509;-72
2023/12/17 10:48:06;;;;;;;15.73;15.23;;;23.30;53.70;;;;;;5003979;28;20475;-72
2023/12/17 10:50:35;;;;;;;14.33;13.93;;;23.40;53.70;;;;;;5007086;28;21114;-72
2023/12/17 10:53:02;;;;;;;14.17;13.83;;;23.40;53.60;;;;;;5007132;28;20922;-71
2023/12/17 10:55:31;;;;;;;13.53;13.20;;;23.40;53.50;;;;;;4985235;28;20477;-71
2023/12/17 10:58:02;;;;;;;13.77;13.47;;;23.40;53.50;;;;;;5003516;28;20795;-71
2023/12/17 11:00:32;;;;;;;14.10;13.50;;;23.40;53.40;;;;;;4995521;28;20855;-69
2023/12/17 11:03:04;;;;;;;15.50;15.03;;;23.40;53.50;;;;;;5003517;28;20498;-68
2023/12/17 11:05:31;;;;;;;14.23;13.83;;;23.30;52.70;;;;;;5000545;28;20493;-69
2023/12/17 11:08:00;;;;;;;14.20;13.83;;;23.20;52.80;;;;;;5003416;28;20474;-68
2023/12/17 11:10:30;;;;;;;15.10;14.60;;;23.10;52.80;;;;;;5006299;28;20453;-69
2023/12/17 11:13:14;;;;;;;14.57;14.17;;;23.10;52.90;;;;;;5005492;28;20458;-70
2023/12/17 11:15:41;;;;;;;14.20;13.90;;;23.00;52.90;;;;;;5000323;28;20469;-70
2023/12/17 11:18:10;;;;;;;15.80;15.40;;;23.00;53.00;;;;;;5003584;28;20485;-69
2023/12/17 11:20:41;;;;;;;13.90;13.50;;;23.00;53.00;;;;;;5006553;28;20484;-71
2023/12/17 11:23:08;;;;;;;13.77;13.37;;;23.00;53.00;;;;;;5005610;28;20917;-70
2023/12/17 11:25:36;;;;;;;14.07;13.57;;;22.90;53.00;;;;;;5002091;28;20517;-70
2023/12/17 11:28:10;;;;;;;14.80;14.40;;;22.90;53.10;;;;;;5002873;28;20446;-71
2023/12/17 11:30:38;;;;;;;13.93;13.63;;;23.00;53.20;;;;;;4995810;28;20490;-71
2023/12/17 11:33:06;;;;;;;14.20;13.80;;;23.00;53.80;;;;;;5002688;28;20471;-68
2023/12/17 11:35:37;;;;;;;14.90;14.50;;;23.00;53.40;;;;;;5006090;28;20450;-67
2023/12/17 11:38:08;;;;;;;15.27;14.73;;;23.20;54.00;;;;;;5003120;28;20443;-71
2023/12/17 11:40:37;;;;;;;14.40;14.00;;;23.20;54.20;;;;;;4994115;28;20927;-70
2023/12/17 11:43:07;;;;;;;14.90;14.60;;;23.20;54.30;;;;;;5002613;28;20474;-71
2023/12/17 11:45:43;;;;;;;14.63;14.23;;;23.20;54.20;;;;;;4998744;28;20445;-71
2023/12/17 11:48:14;;;;;;;14.70;14.30;;;23.30;54.30;;;;;;5004256;28;20899;-69
2023/12/17 11:50:43;;;;;;;15.03;14.63;;;23.30;54.30;;;;;;5002570;28;20439;-69
2023/12/17 11:53:12;;;;;;;14.10;13.80;;;23.30;54.50;;;;;;5002992;28;20498;-70
2023/12/17 11:55:46;;;;;;;14.07;13.67;;;23.30;54.40;;;;;;5001462;28;20938;-71
2023/12/17 11:58:21;;;;;;;15.67;15.17;;;23.30;54.50;;;;;;5003313;28;20498;-72
2023/12/17 12:01:13;;;;;;;14.70;14.30;;;23.30;54.30;;;;;;5005886;28;20457;-71
2023/12/17 12:03:43;;;;;;;14.53;14.03;;;23.40;54.30;;;;;;4997510;28;20942;-69
2023/12/17 12:06:17;;;;;;;15.10;14.70;;;23.40;54.30;;;;;;4994768;28;20525;-69
2023/12/17 12:08:48;;;;;;;14.63;14.23;;;23.40;54.20;;;;;;5000048;28;20500;-70
2023/12/17 12:11:29;;;;;;;14.87;14.47;;;23.40;53.30;;;;;;5003524;28;20466;-71
2023/12/17 12:13:58;;;;;;;14.07;13.63;;;23.30;53.10;;;;;;5003898;28;20475;-69
2023/12/17 12:16:24;;;;;;;14.37;13.97;;;23.30;53.10;;;;;;5004546;28;20467;-69
2023/12/17 12:19:02;;;;;;;15.30;14.90;;;23.30;53.20;;;;;;5005248;28;20965;-69
2023/12/17 12:24:01;;;;;;;15.10;14.70;;;23.30;53.30;;;;;;4953594;29;20887;-69
2023/12/17 12:26:37;;;;;;;14.10;13.70;;;23.30;53.20;;;;;;4955207;29;21058;-72
2023/12/17 12:29:07;;;;;;;14.30;13.90;;;23.30;53.20;;;;;;4955709;28;20472;-72
2023/12/17 12:31:35;;;;;;;14.87;14.40;;;23.30;53.10;;;;;;4948096;28;20823;-74
2023/12/17 12:34:07;;;;;;;14.97;14.57;;;23.30;53.10;;;;;;4955567;28;20455;-73
2023/12/17 12:36:46;;;;;;;12.45;12.15;;;23.20;53.40;;;;;;4946507;29;20927;-69